sensor_id;sensor_type;location;lat;lon;timestamp;temperature;humidity
1716;DHT22;855;48.824;9.220;2023-10-13T00:00:26;19.40;86.20
1716;DHT22;855;48.824;9.220;2023-10-13T00:02:56;19.30;86.40
1716;DHT22;855;48.824;9.220;2023-10-13T00:05:26;19.30;86.40
1716;DHT22;855;48.824;9.220;2023-10-13T00:07:53;19.30;86.10
1716;DHT22;855;48.824;9.220;2023-10-13T00:10:20;19.20;86.90
1716;DHT22;855;48.824;9.220;2023-10-13T00:12:47;19.30;86.90
1716;DHT22;855;48.824;9.220;2023-10-13T00:15:18;19.30;86.60
1716;DHT22;855;48.824;9.220;2023-10-13T00:17:46;19.30;86.50
1716;DHT22;855;48.824;9.220;2023-10-13T00:20:13;19.30;86.50
1716;DHT22;855;48.824;9.220;2023-10-13T00:23:01;19.30;86.50
1716;DHT22;855;48.824;9.220;2023-10-13T00:25:32;19.30;86.50
1716;DHT22;855;48.824;9.220;2023-10-13T00:28:09;19.10;86.70
1716;DHT22;855;48.824;9.220;2023-10-13T00:30:37;18.90;87.40
1716;DHT22;855;48.824;9.220;2023-10-13T00:33:04;18.90;87.30
1716;DHT22;855;48.824;9.220;2023-10-13T00:35:32;18.60;87.90
1716;DHT22;855;48.824;9.220;2023-10-13T00:38:03;18.60;88.20
1716;DHT22;855;48.824;9.220;2023-10-13T00:40:38;18.60;87.90
1716;DHT22;855;48.824;9.220;2023-10-13T00:43:10;18.60;87.70
1716;DHT22;855;48.824;9.220;2023-10-13T00:45:56;18.60;87.50
1716;DHT22;855;48.824;9.220;2023-10-13T00:48:24;18.60;87.50
1716;DHT22;855;48.824;9.220;2023-10-13T00:50:56;18.50;87.50
1716;DHT22;855;48.824;9.220;2023-10-13T00:53:27;18.50;87.50
1716;DHT22;855;48.824;9.220;2023-10-13T00:55:54;18.40;87.70
1716;DHT22;855;48.824;9.220;2023-10-13T00:58:23;18.30;87.90
1716;DHT22;855;48.824;9.220;2023-10-13T01:00:50;18.20;88.50
1716;DHT22;855;48.824;9.220;2023-10-13T01:03:24;18.20;88.50
1716;DHT22;855;48.824;9.220;2023-10-13T01:05:53;18.10;88.70
1716;DHT22;855;48.824;9.220;2023-10-13T01:08:32;18.00;89.00
1716;DHT22;855;48.824;9.220;2023-10-13T01:11:00;17.90;89.50
1716;DHT22;855;48.824;9.220;2023-10-13T01:13:27;17.70;90.20
1716;DHT22;855;48.824;9.220;2023-10-13T01:15:56;17.70;90.20
1716;DHT22;855;48.824;9.220;2023-10-13T01:18:24;17.70;90.20
1716;DHT22;855;48.824;9.220;2023-10-13T01:20:54;17.70;90.20
1716;DHT22;855;48.824;9.220;2023-10-13T01:23:26;17.60;90.30
1716;DHT22;855;48.824;9.220;2023-10-13T01:25:54;17.70;90.30
1716;DHT22;855;48.824;9.220;2023-10-13T01:28:22;17.70;90.10
1716;DHT22;855;48.824;9.220;2023-10-13T01:30:48;17.70;90.10
1716;DHT22;855;48.824;9.220;2023-10-13T01:33:16;17.50;90.30
1716;DHT22;855;48.824;9.220;2023-10-13T01:35:42;17.40;90.70
1716;DHT22;855;48.824;9.220;2023-10-13T01:38:13;17.40;90.70
1716;DHT22;855;48.824;9.220;2023-10-13T01:40:40;17.40;90.40
1716;DHT22;855;48.824;9.220;2023-10-13T01:43:08;17.40;90.40
1716;DHT22;855;48.824;9.220;2023-10-13T01:45:37;17.40;90.10
1716;DHT22;855;48.824;9.220;2023-10-13T01:48:15;17.40;90.10
1716;DHT22;855;48.824;9.220;2023-10-13T01:50:45;17.40;90.10
1716;DHT22;855;48.824;9.220;2023-10-13T01:53:18;17.40;90.10
1716;DHT22;855;48.824;9.220;2023-10-13T01:55:46;17.30;90.10
1716;DHT22;855;48.824;9.220;2023-10-13T01:58:13;17.20;90.20
1716;DHT22;855;48.824;9.220;2023-10-13T02:00:41;17.20;90.30
1716;DHT22;855;48.824;9.220;2023-10-13T02:03:08;17.10;90.40
1716;DHT22;855;48.824;9.220;2023-10-13T02:05:41;17.00;90.50
1716;DHT22;855;48.824;9.220;2023-10-13T02:08:13;17.00;90.60
1716;DHT22;855;48.824;9.220;2023-10-13T02:10:45;17.10;90.80
1716;DHT22;855;48.824;9.220;2023-10-13T02:13:13;17.00;90.40
1716;DHT22;855;48.824;9.220;2023-10-13T02:15:43;17.00;90.40
1716;DHT22;855;48.824;9.220;2023-10-13T02:18:10;17.00;90.30
1716;DHT22;855;48.824;9.220;2023-10-13T02:20:37;16.90;90.40
1716;DHT22;855;48.824;9.220;2023-10-13T02:23:08;16.80;90.40
1716;DHT22;855;48.824;9.220;2023-10-13T02:25:36;16.80;90.40
1716;DHT22;855;48.824;9.220;2023-10-13T02:28:09;16.80;90.40
1716;DHT22;855;48.824;9.220;2023-10-13T02:30:40;16.80;90.30
1716;DHT22;855;48.824;9.220;2023-10-13T02:33:13;16.80;90.40
1716;DHT22;855;48.824;9.220;2023-10-13T02:35:40;16.70;90.50
1716;DHT22;855;48.824;9.220;2023-10-13T02:38:16;16.60;90.60
1716;DHT22;855;48.824;9.220;2023-10-13T02:40:52;16.50;90.80
1716;DHT22;855;48.824;9.220;2023-10-13T02:43:22;16.40;90.80
1716;DHT22;855;48.824;9.220;2023-10-13T02:45:55;16.30;91.00
1716;DHT22;855;48.824;9.220;2023-10-13T02:48:25;16.30;90.90
1716;DHT22;855;48.824;9.220;2023-10-13T02:50:56;16.30;90.90
1716;DHT22;855;48.824;9.220;2023-10-13T02:53:23;16.30;91.00
1716;DHT22;855;48.824;9.220;2023-10-13T02:55:51;16.30;91.00
1716;DHT22;855;48.824;9.220;2023-10-13T02:58:18;16.30;91.00
1716;DHT22;855;48.824;9.220;2023-10-13T03:00:47;16.30;90.90
1716;DHT22;855;48.824;9.220;2023-10-13T03:03:13;16.20;90.90
1716;DHT22;855;48.824;9.220;2023-10-13T03:05:44;16.20;91.00
1716;DHT22;855;48.824;9.220;2023-10-13T03:08:11;16.20;91.00
1716;DHT22;855;48.824;9.220;2023-10-13T03:10:51;16.20;90.90
1716;DHT22;855;48.824;9.220;2023-10-13T03:13:19;16.20;90.80
1716;DHT22;855;48.824;9.220;2023-10-13T03:15:48;16.20;90.80
1716;DHT22;855;48.824;9.220;2023-10-13T03:18:13;16.00;91.10
1716;DHT22;855;48.824;9.220;2023-10-13T03:20:43;15.90;91.40
1716;DHT22;855;48.824;9.220;2023-10-13T03:23:09;15.90;91.40
1716;DHT22;855;48.824;9.220;2023-10-13T03:25:36;15.90;91.40
1716;DHT22;855;48.824;9.220;2023-10-13T03:28:08;15.90;91.40
1716;DHT22;855;48.824;9.220;2023-10-13T03:30:39;15.70;91.70
1716;DHT22;855;48.824;9.220;2023-10-13T03:33:09;15.70;91.90
1716;DHT22;855;48.824;9.220;2023-10-13T03:35:37;15.60;91.90
1716;DHT22;855;48.824;9.220;2023-10-13T03:38:06;15.70;91.90
1716;DHT22;855;48.824;9.220;2023-10-13T03:40:42;15.70;91.80
1716;DHT22;855;48.824;9.220;2023-10-13T03:43:14;15.70;91.80
1716;DHT22;855;48.824;9.220;2023-10-13T03:45:43;15.60;91.60
1716;DHT22;855;48.824;9.220;2023-10-13T03:48:15;15.60;91.60
1716;DHT22;855;48.824;9.220;2023-10-13T03:50:55;15.60;91.60
1716;DHT22;855;48.824;9.220;2023-10-13T03:53:28;15.50;91.50
1716;DHT22;855;48.824;9.220;2023-10-13T03:55:59;15.50;91.40
1716;DHT22;855;48.824;9.220;2023-10-13T03:58:34;15.50;91.40
1716;DHT22;855;48.824;9.220;2023-10-13T04:01:07;15.50;91.40
1716;DHT22;855;48.824;9.220;2023-10-13T04:03:38;15.40;91.30
1716;DHT22;855;48.824;9.220;2023-10-13T04:06:22;15.40;91.50
1716;DHT22;855;48.824;9.220;2023-10-13T04:09:09;15.30;91.90
1716;DHT22;855;48.824;9.220;2023-10-13T04:11:52;15.20;92.10
1716;DHT22;855;48.824;9.220;2023-10-13T04:14:38;15.20;92.00
1716;DHT22;855;48.824;9.220;2023-10-13T04:17:23;15.20;92.30
1716;DHT22;855;48.824;9.220;2023-10-13T04:19:54;15.20;92.30
1716;DHT22;855;48.824;9.220;2023-10-13T04:22:36;15.20;92.30
1716;DHT22;855;48.824;9.220;2023-10-13T04:25:18;15.20;92.30
1716;DHT22;855;48.824;9.220;2023-10-13T04:28:17;15.10;92.30
1716;DHT22;855;48.824;9.220;2023-10-13T04:31:04;15.00;92.30
1716;DHT22;855;48.824;9.220;2023-10-13T04:33:38;15.00;92.40
1716;DHT22;855;48.824;9.220;2023-10-13T04:36:18;15.00;92.40
1716;DHT22;855;48.824;9.220;2023-10-13T04:39:03;14.90;92.40
1716;DHT22;855;48.824;9.220;2023-10-13T04:41:36;15.00;92.20
1716;DHT22;855;48.824;9.220;2023-10-13T04:44:05;15.00;92.10
1716;DHT22;855;48.824;9.220;2023-10-13T04:47:05;15.00;92.00
1716;DHT22;855;48.824;9.220;2023-10-13T04:49:43;15.00;92.10
1716;DHT22;855;48.824;9.220;2023-10-13T04:52:17;15.00;92.10
1716;DHT22;855;48.824;9.220;2023-10-13T04:55:01;15.00;92.10
1716;DHT22;855;48.824;9.220;2023-10-13T04:57:42;14.90;92.00
1716;DHT22;855;48.824;9.220;2023-10-13T05:00:13;14.90;92.10
1716;DHT22;855;48.824;9.220;2023-10-13T05:02:58;15.00;92.10
1716;DHT22;855;48.824;9.220;2023-10-13T05:05:43;14.90;92.20
1716;DHT22;855;48.824;9.220;2023-10-13T05:08:33;15.00;92.30
1716;DHT22;855;48.824;9.220;2023-10-13T05:11:17;14.90;92.50
1716;DHT22;855;48.824;9.220;2023-10-13T05:14:01;14.90;92.70
1716;DHT22;855;48.824;9.220;2023-10-13T05:16:45;14.90;92.70
1716;DHT22;855;48.824;9.220;2023-10-13T05:19:29;15.00;92.70
1716;DHT22;855;48.824;9.220;2023-10-13T05:22:13;15.00;92.70
1716;DHT22;855;48.824;9.220;2023-10-13T05:24:59;15.00;92.70
1716;DHT22;855;48.824;9.220;2023-10-13T05:27:43;15.00;92.60
1716;DHT22;855;48.824;9.220;2023-10-13T05:30:27;15.00;92.60
1716;DHT22;855;48.824;9.220;2023-10-13T05:33:11;15.00;92.50
1716;DHT22;855;48.824;9.220;2023-10-13T05:35:55;15.00;92.30
1716;DHT22;855;48.824;9.220;2023-10-13T05:38:39;15.00;92.20
1716;DHT22;855;48.824;9.220;2023-10-13T05:41:25;14.90;91.90
1716;DHT22;855;48.824;9.220;2023-10-13T05:44:12;14.90;91.10
1716;DHT22;855;48.824;9.220;2023-10-13T05:46:56;14.90;91.00
1716;DHT22;855;48.824;9.220;2023-10-13T05:49:59;15.00;90.20
1716;DHT22;855;48.824;9.220;2023-10-13T05:52:31;15.10;89.50
1716;DHT22;855;48.824;9.220;2023-10-13T05:55:22;15.20;89.00
1716;DHT22;855;48.824;9.220;2023-10-13T05:58:08;15.40;89.00
1716;DHT22;855;48.824;9.220;2023-10-13T06:00:53;15.50;88.20
1716;DHT22;855;48.824;9.220;2023-10-13T06:03:37;15.60;87.80
1716;DHT22;855;48.824;9.220;2023-10-13T06:06:21;15.70;87.00
1716;DHT22;855;48.824;9.220;2023-10-13T06:09:06;15.80;87.10
1716;DHT22;855;48.824;9.220;2023-10-13T06:11:50;16.00;86.60
1716;DHT22;855;48.824;9.220;2023-10-13T06:14:35;16.10;86.10
1716;DHT22;855;48.824;9.220;2023-10-13T06:17:28;16.20;84.90
1716;DHT22;855;48.824;9.220;2023-10-13T06:20:12;16.30;84.00
1716;DHT22;855;48.824;9.220;2023-10-13T06:22:56;16.40;83.80
1716;DHT22;855;48.824;9.220;2023-10-13T06:25:40;16.60;82.40
1716;DHT22;855;48.824;9.220;2023-10-13T06:28:24;16.80;80.90
1716;DHT22;855;48.824;9.220;2023-10-13T06:31:12;16.90;80.00
1716;DHT22;855;48.824;9.220;2023-10-13T06:33:47;17.00;78.70
1716;DHT22;855;48.824;9.220;2023-10-13T06:36:13;17.10;78.30
1716;DHT22;855;48.824;9.220;2023-10-13T06:38:40;17.20;78.20
1716;DHT22;855;48.824;9.220;2023-10-13T06:41:08;17.30;77.40
1716;DHT22;855;48.824;9.220;2023-10-13T06:43:35;17.40;77.90
1716;DHT22;855;48.824;9.220;2023-10-13T06:46:05;17.50;77.20
1716;DHT22;855;48.824;9.220;2023-10-13T06:48:37;17.70;77.10
1716;DHT22;855;48.824;9.220;2023-10-13T06:51:06;17.70;76.40
1716;DHT22;855;48.824;9.220;2023-10-13T06:53:43;17.80;76.70
1716;DHT22;855;48.824;9.220;2023-10-13T06:56:13;17.80;76.20
1716;DHT22;855;48.824;9.220;2023-10-13T06:58:48;17.90;75.80
1716;DHT22;855;48.824;9.220;2023-10-13T07:01:15;18.00;75.40
1716;DHT22;855;48.824;9.220;2023-10-13T07:03:48;18.00;75.10
1716;DHT22;855;48.824;9.220;2023-10-13T07:06:18;18.00;74.50
1716;DHT22;855;48.824;9.220;2023-10-13T07:08:45;18.10;74.90
1716;DHT22;855;48.824;9.220;2023-10-13T07:11:17;18.20;74.20
1716;DHT22;855;48.824;9.220;2023-10-13T07:13:59;18.20;74.50
1716;DHT22;855;48.824;9.220;2023-10-13T07:16:26;18.30;73.30
1716;DHT22;855;48.824;9.220;2023-10-13T07:19:02;18.30;73.30
1716;DHT22;855;48.824;9.220;2023-10-13T07:21:32;18.40;72.90
1716;DHT22;855;48.824;9.220;2023-10-13T07:23:59;18.50;72.70
1716;DHT22;855;48.824;9.220;2023-10-13T07:26:36;18.60;73.40
1716;DHT22;855;48.824;9.220;2023-10-13T07:29:08;18.80;72.90
1716;DHT22;855;48.824;9.220;2023-10-13T07:31:37;18.90;72.10
1716;DHT22;855;48.824;9.220;2023-10-13T07:34:07;18.90;72.30
1716;DHT22;855;48.824;9.220;2023-10-13T07:36:48;19.00;70.60
1716;DHT22;855;48.824;9.220;2023-10-13T07:39:15;19.20;70.90
1716;DHT22;855;48.824;9.220;2023-10-13T07:41:47;19.30;70.20
1716;DHT22;855;48.824;9.220;2023-10-13T07:44:18;19.40;69.60
1716;DHT22;855;48.824;9.220;2023-10-13T07:46:51;19.50;68.80
1716;DHT22;855;48.824;9.220;2023-10-13T07:49:29;19.60;68.40
1716;DHT22;855;48.824;9.220;2023-10-13T07:51:59;19.70;67.50
1716;DHT22;855;48.824;9.220;2023-10-13T07:54:42;19.80;67.50
1716;DHT22;855;48.824;9.220;2023-10-13T07:57:13;19.80;66.50
1716;DHT22;855;48.824;9.220;2023-10-13T07:59:41;19.90;65.70
1716;DHT22;855;48.824;9.220;2023-10-13T08:02:14;19.90;65.70
1716;DHT22;855;48.824;9.220;2023-10-13T08:05:00;19.90;65.70
1716;DHT22;855;48.824;9.220;2023-10-13T08:07:30;20.10;65.30
1716;DHT22;855;48.824;9.220;2023-10-13T08:09:57;20.10;64.50
1716;DHT22;855;48.824;9.220;2023-10-13T08:12:25;20.10;64.40
1716;DHT22;855;48.824;9.220;2023-10-13T08:14:53;20.20;64.30
1716;DHT22;855;48.824;9.220;2023-10-13T08:17:38;20.30;63.90
1716;DHT22;855;48.824;9.220;2023-10-13T08:20:11;20.50;64.70
1716;DHT22;855;48.824;9.220;2023-10-13T08:22:38;20.60;63.20
1716;DHT22;855;48.824;9.220;2023-10-13T08:25:12;20.70;62.20
1716;DHT22;855;48.824;9.220;2023-10-13T08:27:47;20.80;62.30
1716;DHT22;855;48.824;9.220;2023-10-13T08:30:44;21.00;61.80
1716;DHT22;855;48.824;9.220;2023-10-13T08:33:19;21.10;61.60
1716;DHT22;855;48.824;9.220;2023-10-13T08:35:50;21.30;60.40
1716;DHT22;855;48.824;9.220;2023-10-13T08:38:31;21.40;60.10
1716;DHT22;855;48.824;9.220;2023-10-13T08:41:16;21.60;59.80
1716;DHT22;855;48.824;9.220;2023-10-13T08:43:57;21.70;58.90
1716;DHT22;855;48.824;9.220;2023-10-13T08:46:31;21.70;58.90
1716;DHT22;855;48.824;9.220;2023-10-13T08:49:18;21.90;58.20
1716;DHT22;855;48.824;9.220;2023-10-13T08:51:49;22.00;57.70
1716;DHT22;855;48.824;9.220;2023-10-13T08:54:32;22.20;57.30
1716;DHT22;855;48.824;9.220;2023-10-13T08:57:11;22.20;56.80
1716;DHT22;855;48.824;9.220;2023-10-13T08:59:54;22.30;56.70
1716;DHT22;855;48.824;9.220;2023-10-13T09:02:23;22.50;56.00
1716;DHT22;855;48.824;9.220;2023-10-13T09:05:05;22.50;55.80
1716;DHT22;855;48.824;9.220;2023-10-13T09:07:52;22.70;55.30
1716;DHT22;855;48.824;9.220;2023-10-13T09:10:33;22.80;54.70
1716;DHT22;855;48.824;9.220;2023-10-13T09:12:59;23.00;54.20
1716;DHT22;855;48.824;9.220;2023-10-13T09:15:37;23.20;53.30
1716;DHT22;855;48.824;9.220;2023-10-13T09:18:30;23.40;52.20
1716;DHT22;855;48.824;9.220;2023-10-13T09:21:12;23.60;52.20
1716;DHT22;855;48.824;9.220;2023-10-13T09:24:13;23.80;50.80
1716;DHT22;855;48.824;9.220;2023-10-13T09:26:47;23.80;50.70
1716;DHT22;855;48.824;9.220;2023-10-13T09:29:15;24.00;50.10
1716;DHT22;855;48.824;9.220;2023-10-13T09:31:45;24.20;49.40
1716;DHT22;855;48.824;9.220;2023-10-13T09:34:21;24.30;48.70
1716;DHT22;855;48.824;9.220;2023-10-13T09:36:57;24.50;49.20
1716;DHT22;855;48.824;9.220;2023-10-13T09:39:25;24.70;48.20
1716;DHT22;855;48.824;9.220;2023-10-13T09:42:07;24.80;48.40
1716;DHT22;855;48.824;9.220;2023-10-13T09:44:36;25.00;47.70
1716;DHT22;855;48.824;9.220;2023-10-13T09:47:10;25.10;46.70
1716;DHT22;855;48.824;9.220;2023-10-13T09:49:45;25.10;46.60
1716;DHT22;855;48.824;9.220;2023-10-13T09:52:15;25.20;47.20
1716;DHT22;855;48.824;9.220;2023-10-13T09:54:59;25.40;46.30
1716;DHT22;855;48.824;9.220;2023-10-13T09:57:32;25.50;47.30
1716;DHT22;855;48.824;9.220;2023-10-13T10:00:08;25.60;46.30
1716;DHT22;855;48.824;9.220;2023-10-13T10:02:53;25.60;43.70
1716;DHT22;855;48.824;9.220;2023-10-13T10:05:25;25.60;43.00
1716;DHT22;855;48.824;9.220;2023-10-13T10:07:55;25.70;41.70
1716;DHT22;855;48.824;9.220;2023-10-13T10:13:15;25.90;42.00
1716;DHT22;855;48.824;9.220;2023-10-13T10:15:47;26.10;42.10
1716;DHT22;855;48.824;9.220;2023-10-13T10:18:18;26.30;41.60
1716;DHT22;855;48.824;9.220;2023-10-13T10:20:49;26.40;41.10
1716;DHT22;855;48.824;9.220;2023-10-13T10:23:24;26.50;40.70
1716;DHT22;855;48.824;9.220;2023-10-13T10:25:53;26.70;41.40
1716;DHT22;855;48.824;9.220;2023-10-13T10:28:35;26.80;40.60
1716;DHT22;855;48.824;9.220;2023-10-13T10:31:05;26.80;40.20
1716;DHT22;855;48.824;9.220;2023-10-13T10:33:35;26.80;39.90
1716;DHT22;855;48.824;9.220;2023-10-13T10:36:04;26.80;39.90
1716;DHT22;855;48.824;9.220;2023-10-13T10:38:31;26.80;40.00
1716;DHT22;855;48.824;9.220;2023-10-13T10:41:05;26.80;39.40
1716;DHT22;855;48.824;9.220;2023-10-13T10:43:36;26.80;39.60
1716;DHT22;855;48.824;9.220;2023-10-13T10:46:09;26.90;40.00
1716;DHT22;855;48.824;9.220;2023-10-13T10:48:36;26.90;39.00
1716;DHT22;855;48.824;9.220;2023-10-13T10:51:10;27.00;39.90
1716;DHT22;855;48.824;9.220;2023-10-13T10:53:48;26.90;40.00
1716;DHT22;855;48.824;9.220;2023-10-13T10:56:24;26.90;39.60
1716;DHT22;855;48.824;9.220;2023-10-13T10:58:54;27.00;39.70
1716;DHT22;855;48.824;9.220;2023-10-13T11:01:21;27.00;40.50
1716;DHT22;855;48.824;9.220;2023-10-13T11:03:56;27.00;40.20
1716;DHT22;855;48.824;9.220;2023-10-13T11:06:35;27.10;39.90
1716;DHT22;855;48.824;9.220;2023-10-13T11:09:08;27.10;39.90
1716;DHT22;855;48.824;9.220;2023-10-13T11:11:45;27.10;38.40
1716;DHT22;855;48.824;9.220;2023-10-13T11:14:20;27.20;39.40
1716;DHT22;855;48.824;9.220;2023-10-13T11:16:50;27.20;39.20
1716;DHT22;855;48.824;9.220;2023-10-13T11:19:20;27.30;38.90
1716;DHT22;855;48.824;9.220;2023-10-13T11:21:53;27.40;39.20
1716;DHT22;855;48.824;9.220;2023-10-13T11:24:21;27.50;39.10
1716;DHT22;855;48.824;9.220;2023-10-13T11:26:49;27.60;38.40
1716;DHT22;855;48.824;9.220;2023-10-13T11:29:16;27.70;38.10
1716;DHT22;855;48.824;9.220;2023-10-13T11:31:46;27.80;38.60
1716;DHT22;855;48.824;9.220;2023-10-13T11:34:19;27.80;37.90
1716;DHT22;855;48.824;9.220;2023-10-13T11:36:46;27.80;37.60
1716;DHT22;855;48.824;9.220;2023-10-13T11:39:14;28.00;37.10
1716;DHT22;855;48.824;9.220;2023-10-13T11:41:50;28.10;37.40
1716;DHT22;855;48.824;9.220;2023-10-13T11:44:21;28.20;37.00
1716;DHT22;855;48.824;9.220;2023-10-13T11:46:49;28.20;36.60
1716;DHT22;855;48.824;9.220;2023-10-13T11:49:24;28.20;36.60
1716;DHT22;855;48.824;9.220;2023-10-13T11:52:02;28.20;37.10
1716;DHT22;855;48.824;9.220;2023-10-13T11:54:46;28.40;37.00
1716;DHT22;855;48.824;9.220;2023-10-13T11:57:13;28.40;36.90
1716;DHT22;855;48.824;9.220;2023-10-13T11:59:42;28.40;35.60
1716;DHT22;855;48.824;9.220;2023-10-13T12:02:20;28.50;36.00
1716;DHT22;855;48.824;9.220;2023-10-13T12:05:06;28.50;36.10
1716;DHT22;855;48.824;9.220;2023-10-13T12:07:38;28.50;36.10
1716;DHT22;855;48.824;9.220;2023-10-13T12:10:16;28.50;36.40
1716;DHT22;855;48.824;9.220;2023-10-13T12:12:58;28.60;35.90
1716;DHT22;855;48.824;9.220;2023-10-13T12:15:32;28.50;36.60
1716;DHT22;855;48.824;9.220;2023-10-13T12:18:03;28.60;34.90
1716;DHT22;855;48.824;9.220;2023-10-13T12:20:30;28.70;35.60
1716;DHT22;855;48.824;9.220;2023-10-13T12:23:01;28.70;35.60
1716;DHT22;855;48.824;9.220;2023-10-13T12:25:43;28.70;35.70
1716;DHT22;855;48.824;9.220;2023-10-13T12:28:26;28.70;35.50
1716;DHT22;855;48.824;9.220;2023-10-13T12:31:02;28.60;35.40
1716;DHT22;855;48.824;9.220;2023-10-13T12:33:32;28.70;35.40
1716;DHT22;855;48.824;9.220;2023-10-13T12:36:06;28.80;35.00
1716;DHT22;855;48.824;9.220;2023-10-13T12:38:55;28.90;35.00
1716;DHT22;855;48.824;9.220;2023-10-13T12:41:41;29.00;35.60
1716;DHT22;855;48.824;9.220;2023-10-13T12:44:25;29.00;35.00
1716;DHT22;855;48.824;9.220;2023-10-13T12:47:09;28.90;35.40
1716;DHT22;855;48.824;9.220;2023-10-13T12:49:54;29.00;35.00
1716;DHT22;855;48.824;9.220;2023-10-13T12:52:33;29.10;34.90
1716;DHT22;855;48.824;9.220;2023-10-13T12:55:00;29.10;34.90
1716;DHT22;855;48.824;9.220;2023-10-13T12:57:36;29.20;35.10
1716;DHT22;855;48.824;9.220;2023-10-13T13:00:11;29.30;34.90
1716;DHT22;855;48.824;9.220;2023-10-13T13:02:49;29.40;35.50
1716;DHT22;855;48.824;9.220;2023-10-13T13:05:18;29.40;34.40
1716;DHT22;855;48.824;9.220;2023-10-13T13:07:48;29.50;34.30
1716;DHT22;855;48.824;9.220;2023-10-13T13:10:18;29.60;34.60
1716;DHT22;855;48.824;9.220;2023-10-13T13:12:46;29.70;34.30
1716;DHT22;855;48.824;9.220;2023-10-13T13:15:13;29.80;34.10
1716;DHT22;855;48.824;9.220;2023-10-13T13:17:40;29.90;34.00
1716;DHT22;855;48.824;9.220;2023-10-13T13:20:08;29.90;33.80
1716;DHT22;855;48.824;9.220;2023-10-13T13:22:51;30.00;33.40
1716;DHT22;855;48.824;9.220;2023-10-13T13:25:19;30.10;34.00
1716;DHT22;855;48.824;9.220;2023-10-13T13:27:52;30.10;33.00
1716;DHT22;855;48.824;9.220;2023-10-13T13:30:19;30.20;33.50
1716;DHT22;855;48.824;9.220;2023-10-13T13:32:47;30.10;33.40
1716;DHT22;855;48.824;9.220;2023-10-13T13:35:15;30.00;32.80
1716;DHT22;855;48.824;9.220;2023-10-13T13:37:44;29.90;33.10
1716;DHT22;855;48.824;9.220;2023-10-13T13:40:11;30.00;33.50
1716;DHT22;855;48.824;9.220;2023-10-13T13:42:41;30.00;33.10
1716;DHT22;855;48.824;9.220;2023-10-13T13:45:13;30.00;33.10
1716;DHT22;855;48.824;9.220;2023-10-13T13:47:47;30.00;32.10
1716;DHT22;855;48.824;9.220;2023-10-13T13:50:19;29.90;32.40
1716;DHT22;855;48.824;9.220;2023-10-13T13:52:50;30.00;32.60
1716;DHT22;855;48.824;9.220;2023-10-13T13:55:19;29.90;32.10
1716;DHT22;855;48.824;9.220;2023-10-13T13:57:45;29.80;32.40
1716;DHT22;855;48.824;9.220;2023-10-13T14:00:17;29.80;32.30
1716;DHT22;855;48.824;9.220;2023-10-13T14:02:49;29.80;31.90
1716;DHT22;855;48.824;9.220;2023-10-13T14:05:16;29.80;31.80
1716;DHT22;855;48.824;9.220;2023-10-13T14:07:43;29.80;31.80
1716;DHT22;855;48.824;9.220;2023-10-13T14:10:15;29.80;32.40
1716;DHT22;855;48.824;9.220;2023-10-13T14:12:57;29.90;32.40
1716;DHT22;855;48.824;9.220;2023-10-13T14:15:33;29.90;31.50
1716;DHT22;855;48.824;9.220;2023-10-13T14:18:06;30.00;31.30
1716;DHT22;855;48.824;9.220;2023-10-13T14:20:38;30.00;32.30
1716;DHT22;855;48.824;9.220;2023-10-13T14:23:06;29.80;32.40
1716;DHT22;855;48.824;9.220;2023-10-13T14:25:35;29.90;31.60
1716;DHT22;855;48.824;9.220;2023-10-13T14:28:04;29.90;31.90
1716;DHT22;855;48.824;9.220;2023-10-13T14:30:31;29.70;31.10
1716;DHT22;855;48.824;9.220;2023-10-13T14:32:59;29.80;31.50
1716;DHT22;855;48.824;9.220;2023-10-13T14:35:26;29.80;31.40
1716;DHT22;855;48.824;9.220;2023-10-13T14:37:53;29.60;32.10
1716;DHT22;855;48.824;9.220;2023-10-13T14:40:20;29.50;32.10
1716;DHT22;855;48.824;9.220;2023-10-13T14:42:48;29.50;31.30
1716;DHT22;855;48.824;9.220;2023-10-13T14:45:15;29.50;31.80
1716;DHT22;855;48.824;9.220;2023-10-13T14:47:43;29.50;31.50
1716;DHT22;855;48.824;9.220;2023-10-13T14:50:12;29.40;31.90
1716;DHT22;855;48.824;9.220;2023-10-13T14:52:45;29.40;31.80
1716;DHT22;855;48.824;9.220;2023-10-13T14:55:13;29.30;31.90
1716;DHT22;855;48.824;9.220;2023-10-13T14:57:46;29.30;31.80
1716;DHT22;855;48.824;9.220;2023-10-13T15:00:16;29.30;31.40
1716;DHT22;855;48.824;9.220;2023-10-13T15:02:50;29.30;31.80
1716;DHT22;855;48.824;9.220;2023-10-13T15:05:19;29.30;30.80
1716;DHT22;855;48.824;9.220;2023-10-13T15:07:46;29.20;31.40
1716;DHT22;855;48.824;9.220;2023-10-13T15:10:14;29.20;31.50
1716;DHT22;855;48.824;9.220;2023-10-13T15:12:42;29.10;31.80
1716;DHT22;855;48.824;9.220;2023-10-13T15:15:10;29.10;31.60
1716;DHT22;855;48.824;9.220;2023-10-13T15:17:41;29.10;31.50
1716;DHT22;855;48.824;9.220;2023-10-13T15:20:09;29.10;30.90
1716;DHT22;855;48.824;9.220;2023-10-13T15:22:38;29.10;31.50
1716;DHT22;855;48.824;9.220;2023-10-13T15:25:06;29.10;31.30
1716;DHT22;855;48.824;9.220;2023-10-13T15:27:44;29.00;30.10
1716;DHT22;855;48.824;9.220;2023-10-13T15:30:16;29.00;31.00
1716;DHT22;855;48.824;9.220;2023-10-13T15:32:52;29.00;31.00
1716;DHT22;855;48.824;9.220;2023-10-13T15:35:20;28.90;30.40
1716;DHT22;855;48.824;9.220;2023-10-13T15:37:50;28.90;30.40
1716;DHT22;855;48.824;9.220;2023-10-13T15:40:18;28.90;30.50
1716;DHT22;855;48.824;9.220;2023-10-13T15:42:45;28.90;30.40
1716;DHT22;855;48.824;9.220;2023-10-13T15:45:12;28.80;29.50
1716;DHT22;855;48.824;9.220;2023-10-13T15:47:45;28.70;30.10
1716;DHT22;855;48.824;9.220;2023-10-13T15:50:13;28.60;29.80
1716;DHT22;855;48.824;9.220;2023-10-13T15:52:44;28.60;30.40
1716;DHT22;855;48.824;9.220;2023-10-13T15:55:14;28.60;31.50
1716;DHT22;855;48.824;9.220;2023-10-13T15:57:43;28.50;31.40
1716;DHT22;855;48.824;9.220;2023-10-13T16:00:11;28.40;30.10
1716;DHT22;855;48.824;9.220;2023-10-13T16:02:51;28.30;30.80
1716;DHT22;855;48.824;9.220;2023-10-13T16:05:20;28.20;30.40
1716;DHT22;855;48.824;9.220;2023-10-13T16:07:50;28.30;29.60
1716;DHT22;855;48.824;9.220;2023-10-13T16:10:21;28.20;30.50
1716;DHT22;855;48.824;9.220;2023-10-13T16:12:48;28.10;29.50
1716;DHT22;855;48.824;9.220;2023-10-13T16:15:15;28.10;29.60
1716;DHT22;855;48.824;9.220;2023-10-13T16:17:41;28.20;30.30
1716;DHT22;855;48.824;9.220;2023-10-13T16:20:09;28.10;29.90
1716;DHT22;855;48.824;9.220;2023-10-13T16:22:43;28.00;31.10
1716;DHT22;855;48.824;9.220;2023-10-13T16:25:11;27.90;30.30
1716;DHT22;855;48.824;9.220;2023-10-13T16:27:40;27.90;30.40
1716;DHT22;855;48.824;9.220;2023-10-13T16:30:09;27.90;30.40
1716;DHT22;855;48.824;9.220;2023-10-13T16:32:41;27.80;30.50
1716;DHT22;855;48.824;9.220;2023-10-13T16:35:12;27.60;30.50
1716;DHT22;855;48.824;9.220;2023-10-13T16:37:39;27.50;31.30
1716;DHT22;855;48.824;9.220;2023-10-13T16:40:06;27.50;30.40
1716;DHT22;855;48.824;9.220;2023-10-13T16:42:34;27.40;30.90
1716;DHT22;855;48.824;9.220;2023-10-13T16:45:05;27.30;31.00
1716;DHT22;855;48.824;9.220;2023-10-13T16:47:41;27.20;31.30
1716;DHT22;855;48.824;9.220;2023-10-13T16:50:09;27.10;32.00
1716;DHT22;855;48.824;9.220;2023-10-13T16:52:37;27.00;31.60
1716;DHT22;855;48.824;9.220;2023-10-13T16:55:07;26.90;32.10
1716;DHT22;855;48.824;9.220;2023-10-13T16:57:34;26.90;33.00
1716;DHT22;855;48.824;9.220;2023-10-13T17:00:01;26.80;32.30